Time;durP1;ratioP1;P1;durP2;ratioP2;P2;SDS_P1;SDS_P2;PMS_P1;PMS_P2;Temp;Humidity;BMP_temperature;BMP_pressure;BME280_temperature;BME280_humidity;BME280_pressure;Samples;Min_cycle;Max_cycle;Signal;HPM_P1;HPM_P2
2022/01/03 00:01:18;;;;;;;20.80;11.20;;;;;;;7.26;72.07;98032.41;5107730;28;20023;-65
2022/01/03 00:03:44;;;;;;;20.58;10.43;;;;;;;7.27;72.07;98025.03;5108934;28;20521;-65
2022/01/03 00:06:10;;;;;;;17.02;9.68;;;;;;;7.27;72.08;98034.03;5109016;28;20467;-65
2022/01/03 00:08:39;;;;;;;13.65;8.63;;;;;;;7.27;72.20;98041.38;5108795;28;20084;-64
2022/01/03 00:11:04;;;;;;;15.82;9.10;;;;;;;7.28;72.06;98049.31;5109028;28;20032;-65
2022/01/03 00:13:29;;;;;;;14.68;8.70;;;;;;;7.31;71.59;98045.19;5110377;28;20110;-64
2022/01/03 00:15:55;;;;;;;18.73;11.18;;;;;;;7.33;72.37;98034.78;5112490;28;20379;-65
2022/01/03 00:18:23;;;;;;;20.75;11.45;;;;;;;7.34;71.71;98030.97;5093798;28;20391;-65
2022/01/03 00:20:58;;;;;;;20.23;10.35;;;;;;;7.34;72.20;98024.69;5111583;28;20020;-65
2022/01/03 00:23:29;;;;;;;21.15;11.60;;;;;;;7.35;71.87;98013.50;5092701;28;20090;-64
2022/01/03 00:26:02;;;;;;;15.32;9.35;;;;;;;7.38;72.07;98015.66;5112402;28;20080;-64
2022/01/03 00:28:34;;;;;;;13.43;8.00;;;;;;;7.39;71.94;98009.09;5111893;28;20019;-64
2022/01/03 00:31:01;;;;;;;17.67;9.32;;;;;;;7.41;71.83;98001.44;5112626;28;20098;-64
2022/01/03 00:33:27;;;;;;;14.88;9.05;;;;;;;7.42;72.10;97994.88;5113004;28;20020;-65
2022/01/03 00:35:58;;;;;;;18.20;9.68;;;;;;;7.43;72.10;97990.22;5112674;28;20408;-65
2022/01/03 00:38:26;;;;;;;15.15;9.05;;;;;;;7.44;72.00;97997.31;5112512;27;20036;-64
2022/01/03 00:40:52;;;;;;;12.43;8.48;;;;;;;7.45;71.90;97991.59;5111630;28;20019;-64
2022/01/03 00:43:18;;;;;;;15.20;9.02;;;;;;;7.47;71.33;97999.47;5093647;28;20027;-65
2022/01/03 00:45:44;;;;;;;14.70;9.38;;;;;;;7.45;71.61;97999.78;5093799;28;20031;-65
2022/01/03 00:48:10;;;;;;;15.85;8.73;;;;;;;7.47;71.30;97993.22;5111323;28;20187;-64
2022/01/03 00:50:37;;;;;;;17.67;9.32;;;;;;;7.47;71.45;98001.41;5112238;28;20034;-65
2022/01/03 00:53:03;;;;;;;14.50;9.55;;;;;;;7.47;71.34;97985.84;5112254;28;20044;-65
2022/01/03 00:55:29;;;;;;;14.68;9.63;;;;;;;7.47;71.59;97991.28;5110881;28;20031;-65
2022/01/03 00:58:14;;;;;;;16.63;9.50;;;;;;;7.45;71.30;97996.22;5111009;28;20024;-65
2022/01/03 01:00:41;;;;;;;15.75;10.15;;;;;;;7.44;71.48;97992.69;5110681;28;20012;-65
2022/01/03 01:03:15;;;;;;;15.13;8.45;;;;;;;7.45;71.25;97993.50;5111225;28;20032;-65
2022/01/03 01:05:47;;;;;;;15.90;9.18;;;;;;;7.45;71.68;97997.03;5108963;28;20031;-66
2022/01/03 01:08:19;;;;;;;14.20;8.75;;;;;;;7.47;71.54;98006.84;5108055;28;20134;-65
2022/01/03 01:10:45;;;;;;;15.25;8.80;;;;;;;7.48;71.03;98009.28;5092102;28;20019;-65
2022/01/03 01:13:12;;;;;;;14.00;8.88;;;;;;;7.51;71.43;97997.00;5110322;28;20784;-65
2022/01/03 01:15:39;;;;;;;13.48;7.93;;;;;;;7.51;71.34;97986.88;5110158;28;20035;-65
2022/01/03 01:18:05;;;;;;;14.02;8.40;;;;;;;7.53;71.04;97986.63;5109521;28;20043;-65
2022/01/03 01:20:32;;;;;;;12.43;7.78;;;;;;;7.53;71.35;97995.59;5111013;28;20420;-65
2022/01/03 01:22:58;;;;;;;13.70;8.98;;;;;;;7.54;71.68;97982.78;5111688;28;20031;-65
2022/01/03 01:28:05;;;;;;;13.00;7.70;;;;;;;7.57;71.72;97974.81;5111187;28;20024;-63
2022/01/03 01:30:30;;;;;;;15.07;8.90;;;;;;;7.57;71.24;97963.06;5111085;28;20028;-63
2022/01/03 01:33:13;;;;;;;12.05;7.45;;;;;;;7.54;71.40;97960.97;5109547;28;20027;-64
2022/01/03 01:35:46;;;;;;;10.93;7.53;;;;;;;7.53;71.01;97976.50;5092531;28;20027;-63
2022/01/03 01:38:20;;;;;;;13.30;7.18;;;;;;;7.52;70.80;97969.41;5110161;28;20120;-64
2022/01/03 01:40:50;;;;;;;14.43;8.07;;;;;;;7.52;70.76;97965.88;5110408;28;20027;-64
2022/01/03 01:43:39;;;;;;;11.48;7.25;;;;;;;7.51;71.00;97965.06;5111101;28;20036;-64
2022/01/03 01:46:09;;;;;;;13.85;7.18;;;;;;;7.52;71.13;97966.69;5091291;28;20063;-64
2022/01/03 01:48:37;;;;;;;11.20;8.00;;;;;;;7.53;70.98;97965.59;5091550;28;20116;-64
2022/01/03 01:51:04;;;;;;;11.35;7.20;;;;;;;7.53;71.06;97973.78;5091250;28;20062;-65
2022/01/03 01:53:30;;;;;;;11.82;7.63;;;;;;;7.54;70.88;97944.59;5111937;28;20416;-64
2022/01/03 01:55:59;;;;;;;10.90;6.80;;;;;;;7.55;70.82;97944.28;5111464;28;20105;-64
2022/01/03 01:58:44;;;;;;;11.18;6.57;;;;;;;7.54;70.91;97934.47;5111261;28;20693;-65
2022/01/03 02:01:13;;;;;;;13.48;8.00;;;;;;;7.53;70.75;97921.91;5111843;28;20026;-65
2022/01/03 02:04:02;;;;;;;12.75;7.45;;;;;;;7.52;71.40;97916.78;5112127;28;20068;-65
2022/01/03 02:06:47;;;;;;;12.48;7.15;;;;;;;7.47;70.66;97912.16;5111958;28;20012;-65
2022/01/03 02:09:21;;;;;;;30.25;15.00;;;;;;;7.46;70.72;97907.81;5110338;27;20479;-64
2022/01/03 02:11:52;;;;;;;12.52;6.70;;;;;;;7.42;71.36;97893.94;5110812;28;20058;-65
2022/01/03 02:14:21;;;;;;;11.35;6.10;;;;;;;7.38;70.95;97890.16;5110375;28;20031;-65
2022/01/03 02:16:46;;;;;;;9.32;6.10;;;;;;;7.34;71.24;97880.94;5107439;28;20015;-65
2022/01/03 02:19:12;;;;;;;11.00;6.60;;;;;;;7.30;71.10;97875.25;5109955;28;20031;-65
2022/01/03 02:21:38;;;;;;;11.48;6.18;;;;;;;7.27;71.27;97864.09;5111130;28;20550;-65
2022/01/03 02:24:04;;;;;;;11.50;6.82;;;;;;;7.26;71.23;97859.72;5111498;28;20015;-64
2022/01/03 02:26:30;;;;;;;10.68;5.80;;;;;;;7.28;71.21;97852.06;5111083;28;20030;-65
2022/01/03 02:28:56;;;;;;;8.18;5.55;;;;;;;7.32;71.30;97863.25;5110687;28;20020;-65
2022/01/03 02:31:22;;;;;;;9.50;5.90;;;;;;;7.33;71.35;97873.84;5111417;28;20068;-65
2022/01/03 02:33:48;;;;;;;8.90;5.32;;;;;;;7.35;71.11;97868.09;5111539;28;20046;-65
2022/01/03 02:36:16;;;;;;;9.10;5.60;;;;;;;7.35;71.35;97877.09;5110752;28;20027;-65
2022/01/03 02:38:42;;;;;;;9.25;5.50;;;;;;;7.36;70.88;97875.16;5110834;28;20038;-65
2022/01/03 02:41:08;;;;;;;9.45;5.30;;;;;;;7.37;71.07;97872.16;5112217;28;20099;-65
2022/01/03 02:43:33;;;;;;;10.02;5.65;;;;;;;7.42;70.99;97874.00;5112577;28;20379;-65
2022/01/03 02:45:59;;;;;;;7.75;4.85;;;;;;;7.45;70.94;97884.34;5110503;28;20696;-65
2022/01/03 02:48:26;;;;;;;8.32;5.10;;;;;;;7.47;71.21;97873.16;5108562;28;20023;-66
2022/01/03 02:50:52;;;;;;;9.85;5.45;;;;;;;7.50;71.14;97878.84;5110124;28;20092;-66
2022/01/03 02:53:17;;;;;;;10.10;5.90;;;;;;;7.57;71.01;97892.13;5110392;28;20468;-66
2022/01/03 02:55:42;;;;;;;9.30;5.35;;;;;;;7.59;70.90;97887.19;5110542;28;20028;-65
2022/01/03 02:58:08;;;;;;;9.55;5.53;;;;;;;7.61;70.91;97882.25;5111555;28;20149;-65
2022/01/03 03:00:47;;;;;;;9.20;5.30;;;;;;;7.62;70.28;97872.16;5089851;28;20089;-66
2022/01/03 03:03:18;;;;;;;9.15;5.50;;;;;;;7.60;70.25;97858.81;5108524;28;20040;-65
2022/01/03 03:05:44;;;;;;;11.90;6.30;;;;;;;7.57;70.01;97860.22;5108577;28;20034;-65
2022/01/03 03:08:11;;;;;;;8.80;5.00;;;;;;;7.51;69.83;97866.81;5109518;28;20051;-64
2022/01/03 03:10:37;;;;;;;9.43;5.65;;;;;;;7.49;69.83;97858.13;5109793;28;20460;-64
2022/01/03 03:13:03;;;;;;;8.65;5.57;;;;;;;7.47;70.17;97857.59;5109674;28;20758;-65
2022/01/03 03:15:28;;;;;;;10.25;5.78;;;;;;;7.44;70.39;97853.53;5091958;28;20115;-64
2022/01/03 03:17:54;;;;;;;9.77;5.75;;;;;;;7.45;70.16;97857.06;5109230;28;20031;-65
2022/01/03 03:20:21;;;;;;;11.68;6.10;;;;;;;7.45;70.39;97857.91;5089327;28;20051;-65
2022/01/03 03:22:49;;;;;;;9.48;5.38;;;;;;;7.45;70.08;97859.78;5109540;28;20027;-63
2022/01/03 03:25:28;;;;;;;12.00;5.68;;;;;;;7.47;70.02;97849.41;5109369;28;20494;-64
2022/01/03 03:27:57;;;;;;;10.60;5.57;;;;;;;7.49;70.54;97840.94;5109509;28;20372;-64
2022/01/03 03:30:24;;;;;;;8.82;5.50;;;;;;;7.51;69.78;97844.19;5108441;28;20387;-64
2022/01/03 03:32:52;;;;;;;11.93;5.50;;;;;;;7.51;70.34;97828.63;5109804;28;20422;-64
2022/01/03 03:35:18;;;;;;;11.52;5.47;;;;;;;7.54;69.77;97816.34;5108330;28;20523;-63
2022/01/03 03:37:44;;;;;;;11.95;5.70;;;;;;;7.57;70.08;97816.53;5109124;28;20034;-64
2022/01/03 03:40:10;;;;;;;11.00;5.38;;;;;;;7.60;69.79;97810.50;5108497;28;20023;-64
2022/01/03 03:42:36;;;;;;;14.43;6.97;;;;;;;7.62;69.88;97818.38;5090754;28;20024;-65
2022/01/03 03:45:03;;;;;;;13.07;6.15;;;;;;;7.62;69.74;97810.19;5108394;28;20031;-66
2022/01/03 03:47:28;;;;;;;8.82;5.25;;;;;;;7.65;69.71;97809.63;5109053;28;20042;-65
2022/01/03 03:49:54;;;;;;;14.30;7.05;;;;;;;7.67;69.35;97809.34;5112871;28;20016;-64
2022/01/03 03:52:19;;;;;;;11.57;5.97;;;;;;;7.65;69.37;97801.44;5108811;28;20467;-65
2022/01/03 03:54:45;;;;;;;10.10;5.75;;;;;;;7.67;69.41;97803.88;5114543;27;20057;-65
2022/01/03 03:57:12;;;;;;;12.50;7.00;;;;;;;7.66;69.57;97804.97;5114109;28;20016;-65
2022/01/03 03:59:38;;;;;;;10.18;4.97;;;;;;;7.65;69.30;97806.88;5114136;28;20030;-65
2022/01/03 04:02:03;;;;;;;12.45;6.40;;;;;;;7.66;69.27;97815.91;5114194;28;20403;-65
2022/01/03 04:04:29;;;;;;;7.28;4.40;;;;;;;7.64;69.44;97813.44;5113582;28;20040;-65
2022/01/03 04:06:55;;;;;;;8.32;5.28;;;;;;;7.65;69.46;97801.44;5116398;27;20044;-63
2022/01/03 04:09:20;;;;;;;9.88;5.55;;;;;;;7.64;69.79;97797.06;5096604;28;20027;-63
2022/01/03 04:11:46;;;;;;;10.93;5.70;;;;;;;7.65;69.20;97795.16;5115349;28;20041;-63
2022/01/03 04:14:11;;;;;;;8.60;4.97;;;;;;;7.67;69.23;97795.69;5115432;28;20027;-63
2022/01/03 04:16:37;;;;;;;7.55;5.25;;;;;;;7.69;69.41;97798.94;5115132;28;20049;-63
2022/01/03 04:19:04;;;;;;;10.90;5.38;;;;;;;7.69;69.29;97797.00;5114840;28;20430;-63
2022/01/03 04:21:29;;;;;;;9.50;4.65;;;;;;;7.71;69.51;97800.25;5114795;28;20057;-64
2022/01/03 04:23:55;;;;;;;8.52;5.30;;;;;;;7.73;68.85;97789.84;5114822;28;20024;-64
2022/01/03 04:26:20;;;;;;;6.38;4.32;;;;;;;7.74;69.12;97796.94;5114940;28;20028;-65
2022/01/03 04:28:47;;;;;;;8.23;4.07;;;;;;;7.75;68.91;97795.00;5096380;28;20109;-65
2022/01/03 04:31:12;;;;;;;6.75;4.10;;;;;;;7.78;69.39;97790.91;5113385;27;20518;-65
2022/01/03 04:33:37;;;;;;;7.15;4.70;;;;;;;7.78;69.09;97769.84;5114231;28;20036;-65
2022/01/03 04:36:04;;;;;;;9.27;4.35;;;;;;;7.81;68.67;97765.75;5115562;27;20045;-65
2022/01/03 04:38:32;;;;;;;7.82;4.90;;;;;;;7.84;69.00;97767.88;5114162;28;20063;-64
2022/01/03 04:40:58;;;;;;;7.50;4.18;;;;;;;7.82;69.50;97759.19;5113628;28;20015;-64
2022/01/03 04:43:23;;;;;;;8.55;5.00;;;;;;;7.80;69.04;97767.66;5114930;28;20149;-65
2022/01/03 04:45:49;;;;;;;7.10;4.35;;;;;;;7.79;69.82;97760.56;5112342;28;20052;-64
2022/01/03 04:48:15;;;;;;;8.52;4.50;;;;;;;7.77;69.71;97753.78;5114353;28;20030;-64
2022/01/03 04:50:40;;;;;;;5.97;3.45;;;;;;;7.74;69.30;97752.47;5113024;28;20086;-64
2022/01/03 04:53:05;;;;;;;7.70;5.00;;;;;;;7.74;70.33;97756.00;5116985;27;20581;-64
2022/01/03 04:55:31;;;;;;;8.82;4.70;;;;;;;7.74;69.67;97736.88;5113623;28;20019;-64
2022/01/03 04:57:56;;;;;;;6.82;3.60;;;;;;;7.72;69.98;97744.56;5113286;28;20464;-64
2022/01/03 05:00:21;;;;;;;8.95;5.43;;;;;;;7.70;70.13;97741.31;5115454;27;20024;-64
2022/01/03 05:02:47;;;;;;;7.28;4.43;;;;;;;7.71;69.61;97747.59;5109120;28;20020;-64
2022/01/03 05:05:13;;;;;;;6.88;3.80;;;;;;;7.68;69.93;97750.91;5104598;28;20035;-64
2022/01/03 05:07:39;;;;;;;6.57;4.05;;;;;;;7.69;69.61;97744.34;5112852;28;20101;-64
2022/01/03 05:10:05;;;;;;;6.38;3.85;;;;;;;7.71;69.57;97742.94;5111360;28;20052;-64
2022/01/03 05:12:32;;;;;;;6.38;3.72;;;;;;;7.71;70.28;97745.66;5113708;28;20051;-65
2022/01/03 05:14:57;;;;;;;7.70;4.32;;;;;;;7.74;69.90;97738.81;5114051;28;20027;-65
2022/01/03 05:17:23;;;;;;;7.50;4.65;;;;;;;7.75;70.01;97730.31;5113947;28;20434;-64
2022/01/03 05:19:48;;;;;;;6.82;4.25;;;;;;;7.77;69.81;97727.28;5112726;28;20026;-65
2022/01/03 05:22:14;;;;;;;8.55;4.22;;;;;;;7.78;70.01;97718.00;5095521;28;20027;-65
2022/01/03 05:24:39;;;;;;;7.65;4.50;;;;;;;7.81;69.59;97722.06;5114003;28;20031;-65
2022/01/03 05:27:07;;;;;;;7.95;5.20;;;;;;;7.83;69.85;97719.84;5112858;28;20078;-65
2022/01/03 05:29:34;;;;;;;8.27;4.78;;;;;;;7.83;69.44;97712.47;5095168;28;20467;-64
2022/01/03 05:31:59;;;;;;;11.32;5.20;;;;;;;7.80;69.38;97720.44;5109273;28;20027;-65
2022/01/03 05:34:25;;;;;;;10.20;5.20;;;;;;;7.81;69.33;97722.06;5112977;28;20129;-65
2022/01/03 05:36:50;;;;;;;10.95;5.32;;;;;;;7.81;69.10;97717.41;5112181;28;20024;-65
2022/01/03 05:39:16;;;;;;;10.07;5.25;;;;;;;7.81;69.19;97722.06;5113374;28;20051;-65
2022/01/03 05:41:42;;;;;;;7.43;4.43;;;;;;;7.82;69.57;97729.16;5113454;28;20380;-64
2022/01/03 05:44:08;;;;;;;10.75;5.82;;;;;;;7.79;69.78;97725.06;5114020;28;20528;-65
2022/01/03 05:46:34;;;;;;;12.75;5.80;;;;;;;7.78;69.93;97747.22;5113197;28;20084;-64
2022/01/03 05:49:00;;;;;;;9.48;4.93;;;;;;;7.74;70.14;97747.81;5111082;28;20540;-64
2022/01/03 05:51:26;;;;;;;8.35;4.95;;;;;;;7.66;70.81;97759.38;5094966;28;20125;-64
2022/01/03 05:53:53;;;;;;;11.25;4.47;;;;;;;7.56;71.66;97757.63;5112816;28;20114;-65
2022/01/03 05:56:19;;;;;;;9.18;5.00;;;;;;;7.42;72.71;97746.63;5113083;28;20020;-65
2022/01/03 05:58:44;;;;;;;12.98;6.50;;;;;;;7.32;73.10;97711.28;5111255;28;20078;-64
2022/01/03 06:01:10;;;;;;;9.45;5.15;;;;;;;7.23;73.98;97718.47;5112762;28;20031;-65
2022/01/03 06:03:38;;;;;;;9.30;4.85;;;;;;;7.09;74.71;97735.56;5113165;28;20399;-65
2022/01/03 06:06:18;;;;;;;15.23;7.82;;;;;;;7.06;74.70;97729.88;5111046;28;20515;-64
2022/01/03 06:08:43;;;;;;;9.15;5.32;;;;;;;7.00;75.40;97718.22;5112867;28;20048;-65
2022/01/03 06:11:09;;;;;;;18.92;10.00;;;;;;;6.97;75.58;97718.81;5112438;28;20505;-64
2022/01/03 06:13:34;;;;;;;17.45;8.82;;;;;;;6.96;75.88;97730.81;5113098;28;20023;-64
2022/01/03 06:16:00;;;;;;;18.30;9.07;;;;;;;6.92;75.92;97733.31;5109770;28;20349;-65
2022/01/03 06:18:25;;;;;;;19.05;8.63;;;;;;;6.93;75.75;97715.03;5112526;28;20028;-65
2022/01/03 06:20:51;;;;;;;27.45;11.38;;;;;;;6.93;76.13;97717.75;5112337;28;20051;-64
2022/01/03 06:23:20;;;;;;;11.80;5.65;;;;;;;6.92;76.09;97724.31;5111908;28;20091;-65
2022/01/03 06:25:46;;;;;;;11.03;5.67;;;;;;;6.91;76.04;97719.97;5108186;28;20032;-65
2022/01/03 06:28:12;;;;;;;14.02;7.45;;;;;;;6.92;76.78;97722.41;5112369;28;20273;-64
2022/01/03 06:30:39;;;;;;;10.60;5.00;;;;;;;6.92;76.30;97727.88;5112041;28;20027;-65
2022/01/03 06:33:06;;;;;;;12.80;7.03;;;;;;;6.96;76.48;97723.44;5109344;28;20700;-64
2022/01/03 06:35:32;;;;;;;8.40;4.65;;;;;;;6.98;75.99;97728.63;5112705;28;20035;-65
2022/01/03 06:37:59;;;;;;;11.43;5.72;;;;;;;6.99;76.28;97741.94;5111861;28;20031;-64
2022/01/03 06:40:25;;;;;;;8.43;5.40;;;;;;;7.04;76.31;97743.00;5112412;28;20493;-64
2022/01/03 06:42:51;;;;;;;11.25;5.15;;;;;;;7.06;75.84;97744.34;5110527;28;20023;-64
2022/01/03 06:45:16;;;;;;;10.98;5.60;;;;;;;7.12;76.39;97755.97;5112631;28;20061;-64
2022/01/03 06:47:42;;;;;;;13.95;8.02;;;;;;;7.17;75.69;97758.66;5111579;28;20024;-64
2022/01/03 06:50:08;;;;;;;16.52;8.95;;;;;;;7.19;75.38;97766.53;5111708;28;20035;-64
2022/01/03 06:52:34;;;;;;;38.05;19.30;;;;;;;7.21;75.38;97769.78;5108706;28;20114;-64
2022/01/03 06:54:59;;;;;;;30.23;16.60;;;;;;;7.23;75.35;97762.94;5110624;28;20107;-64
2022/01/03 06:57:25;;;;;;;21.60;11.25;;;;;;;7.26;75.25;97772.44;5111337;28;20035;-65
2022/01/03 06:59:50;;;;;;;16.95;7.80;;;;;;;7.28;75.33;97753.88;5109996;28;20024;-64
2022/01/03 07:02:16;;;;;;;14.98;7.22;;;;;;;7.28;75.08;97760.16;5111385;28;20073;-64
2022/01/03 07:04:41;;;;;;;12.57;5.85;;;;;;;7.31;74.79;97769.66;5111559;28;20027;-64
2022/01/03 07:07:06;;;;;;;14.40;7.28;;;;;;;7.35;75.04;97778.06;5110380;28;20047;-65
2022/01/03 07:09:32;;;;;;;12.60;6.55;;;;;;;7.38;74.88;97780.22;5110433;28;20028;-64
2022/01/03 07:11:57;;;;;;;14.00;7.53;;;;;;;7.39;74.39;97785.38;5111338;28;20023;-65
2022/01/03 07:19:39;;;;;;;;;;;;;;;7.48;74.39;97782.81;5111314;28;20411;-65
2022/01/03 07:22:08;;;;;;;14.30;6.32;;;;;;;7.50;74.10;97788.00;5110071;28;19912;-65
2022/01/03 07:24:35;;;;;;;14.95;7.10;;;;;;;7.52;74.38;97783.84;5109525;28;20535;-65
2022/01/03 07:27:02;;;;;;;14.32;5.65;;;;;;;7.55;74.04;97796.91;5113174;28;20383;-64
2022/01/03 07:29:28;;;;;;;21.55;7.72;;;;;;;7.57;74.53;97804.81;5108453;28;20028;-63
2022/01/03 07:31:53;;;;;;;14.23;7.07;;;;;;;7.56;73.75;97806.72;5111357;28;20024;-64
2022/01/03 07:34:20;;;;;;;16.33;7.47;;;;;;;7.60;74.31;97805.03;5110556;28;20031;-64
2022/01/03 07:36:45;;;;;;;11.77;4.88;;;;;;;7.63;73.43;97806.38;5109730;28;20031;-64
2022/01/03 07:39:10;;;;;;;9.98;4.88;;;;;;;7.67;73.70;97814.78;5109495;28;20103;-64
2022/01/03 07:41:36;;;;;;;11.50;5.63;;;;;;;7.69;74.05;97826.22;5110094;28;20054;-65
2022/01/03 07:44:02;;;;;;;9.73;4.78;;;;;;;7.71;73.21;97819.38;5111015;28;20035;-64
2022/01/03 07:46:27;;;;;;;10.45;5.45;;;;;;;7.75;73.35;97823.13;5092614;28;20080;-64
2022/01/03 07:48:52;;;;;;;11.63;4.70;;;;;;;7.79;73.07;97828.00;5110137;28;20027;-64
2022/01/03 07:51:18;;;;;;;10.02;5.70;;;;;;;7.81;73.13;97818.41;5111139;28;20023;-64
2022/01/03 07:53:43;;;;;;;13.35;6.10;;;;;;;7.84;72.76;97822.50;5111232;28;20035;-64
2022/01/03 07:56:10;;;;;;;10.82;5.03;;;;;;;7.83;73.00;97827.13;5110835;28;20038;-64
2022/01/03 07:58:36;;;;;;;9.30;4.05;;;;;;;7.87;72.97;97827.34;5108454;28;20066;-64
2022/01/03 08:01:03;;;;;;;11.40;4.93;;;;;;;7.87;72.74;97833.63;5108164;28;20032;-64
2022/01/03 08:03:28;;;;;;;16.38;6.22;;;;;;;7.94;72.62;97843.38;5092551;28;20027;-63
2022/01/03 08:05:54;;;;;;;16.90;5.80;;;;;;;7.96;72.78;97846.63;5113379;28;20019;-63
2022/01/03 08:08:20;;;;;;;11.13;4.75;;;;;;;7.95;71.94;97837.59;5110463;28;20075;-64
2022/01/03 08:10:46;;;;;;;14.25;4.78;;;;;;;7.98;72.76;97847.13;5114023;28;20520;-64
2022/01/03 08:13:12;;;;;;;11.43;4.80;;;;;;;8.01;72.57;97849.28;5106272;28;20024;-63
2022/01/03 08:15:38;;;;;;;15.95;6.35;;;;;;;8.02;72.37;97850.91;5110020;28;20442;-64
2022/01/03 08:18:04;;;;;;;12.45;4.65;;;;;;;8.04;72.80;97854.16;5111715;28;20042;-63
2022/01/03 08:20:30;;;;;;;9.45;4.72;;;;;;;8.06;72.78;97854.69;5110801;28;20035;-64
2022/01/03 08:22:55;;;;;;;12.45;5.25;;;;;;;8.08;72.64;97862.56;5112764;28;20084;-64
2022/01/03 08:25:21;;;;;;;13.05;5.05;;;;;;;8.08;72.76;97871.59;5109751;28;20511;-64
2022/01/03 08:27:46;;;;;;;12.82;5.03;;;;;;;8.11;72.41;97868.25;5110413;28;20055;-65
2022/01/03 08:30:12;;;;;;;10.55;5.25;;;;;;;8.13;72.45;97867.97;5110358;28;20456;-63
2022/01/03 08:32:38;;;;;;;11.00;5.18;;;;;;;8.14;72.18;97870.41;5110818;28;20073;-65
2022/01/03 08:35:03;;;;;;;8.70;4.55;;;;;;;8.18;72.19;97863.22;5091831;28;20087;-65
2022/01/03 08:37:29;;;;;;;11.45;5.15;;;;;;;8.22;71.96;97865.38;5094501;28;20051;-64
2022/01/03 08:39:57;;;;;;;13.82;5.05;;;;;;;8.23;72.43;97872.47;5113396;28;20035;-65
2022/01/03 08:42:24;;;;;;;14.00;5.35;;;;;;;8.25;72.21;97879.28;5094154;28;20076;-65
2022/01/03 08:44:50;;;;;;;12.15;5.40;;;;;;;8.25;71.82;97870.25;5112453;28;20060;-65
2022/01/03 08:47:15;;;;;;;9.73;5.07;;;;;;;8.27;72.03;97863.38;5112279;28;20114;-65
2022/01/03 08:49:41;;;;;;;11.10;5.28;;;;;;;8.31;72.04;97874.53;5112092;28;20022;-66
2022/01/03 08:52:06;;;;;;;10.23;5.07;;;;;;;8.32;71.71;97874.25;5112596;28;20986;-65
2022/01/03 08:54:32;;;;;;;10.90;4.65;;;;;;;8.33;71.84;97869.59;5112750;27;20035;-65
2022/01/03 08:56:58;;;;;;;9.90;4.95;;;;;;;8.35;71.46;97867.38;5112734;28;20019;-66
2022/01/03 08:59:23;;;;;;;11.18;5.13;;;;;;;8.34;71.42;97871.22;5113107;28;20038;-65
2022/01/03 09:01:48;;;;;;;10.27;5.10;;;;;;;8.35;71.06;97867.38;5113440;28;20150;-66
2022/01/03 09:04:14;;;;;;;11.60;5.72;;;;;;;8.35;71.89;97865.44;5113721;28;20020;-66
2022/01/03 09:06:40;;;;;;;12.82;5.95;;;;;;;8.35;71.09;97867.38;5108622;28;20023;-66
2022/01/03 09:09:08;;;;;;;11.40;6.60;;;;;;;8.32;71.52;97870.69;5112971;28;20061;-65
2022/01/03 09:11:34;;;;;;;14.77;6.47;;;;;;;8.30;71.83;97868.28;5113254;28;20027;-65
2022/01/03 09:13:59;;;;;;;19.67;7.28;;;;;;;8.31;71.39;97866.34;5112883;28;20028;-65
2022/01/03 09:16:25;;;;;;;22.40;8.30;;;;;;;8.34;71.69;97871.22;5112398;28;20040;-65
2022/01/03 09:18:50;;;;;;;15.27;6.85;;;;;;;8.37;71.95;97872.53;5111356;28;20092;-64
2022/01/03 09:21:16;;;;;;;22.65;8.75;;;;;;;8.39;72.26;97870.31;5112831;28;20035;-64
2022/01/03 09:23:47;;;;;;;22.63;9.73;;;;;;;8.43;71.36;97871.34;5094929;28;20403;-65
2022/01/03 09:28:57;;;;;;;11.57;5.75;;;;;;;8.51;71.96;97876.19;5112238;28;20081;-65
2022/01/03 09:31:35;;;;;;;13.10;5.35;;;;;;;8.47;70.18;97875.09;5112655;28;20475;-66
2022/01/03 09:34:03;;;;;;;8.73;4.53;;;;;;;8.43;70.90;97874.91;5112843;28;20028;-65
2022/01/03 09:36:30;;;;;;;11.90;5.80;;;;;;;8.40;71.16;97874.66;5112782;28;20062;-65
2022/01/03 09:38:55;;;;;;;9.35;4.80;;;;;;;8.40;71.10;97872.75;5112059;28;20031;-66
2022/01/03 09:41:24;;;;;;;10.77;4.70;;;;;;;8.40;71.58;97878.22;5112612;28;20603;-65
2022/01/03 09:44:00;;;;;;;16.98;7.97;;;;;;;8.44;71.40;97872.97;5112854;28;20026;-65
2022/01/03 09:46:31;;;;;;;10.55;5.65;;;;;;;8.49;70.85;97864.72;5111893;28;20395;-65
2022/01/03 09:48:56;;;;;;;8.90;4.38;;;;;;;8.50;71.08;97871.81;5112277;28;20403;-65
2022/01/03 09:51:26;;;;;;;7.72;3.95;;;;;;;8.52;70.96;97872.34;5112891;28;20020;-65
2022/01/03 09:53:52;;;;;;;47.65;22.85;;;;;;;8.57;71.04;97875.00;5112540;28;20062;-65
2022/01/03 09:56:18;;;;;;;15.45;7.18;;;;;;;8.63;70.55;97856.56;5094635;28;20051;-66
2022/01/03 09:58:45;;;;;;;8.27;3.97;;;;;;;8.65;70.24;97859.81;5112340;28;20377;-65
2022/01/03 10:01:10;;;;;;;6.60;3.28;;;;;;;8.68;69.91;97858.44;5113016;28;20740;-66
2022/01/03 10:03:36;;;;;;;10.48;3.63;;;;;;;8.69;70.24;97849.91;5113047;28;20028;-66
2022/01/03 10:06:02;;;;;;;10.18;3.58;;;;;;;8.69;70.96;97855.38;5112625;28;20031;-65
2022/01/03 10:08:28;;;;;;;7.13;3.15;;;;;;;8.69;70.44;97865.53;5111971;28;20038;-65
2022/01/03 10:10:54;;;;;;;8.30;4.20;;;;;;;8.67;70.09;97862.28;5112725;28;20153;-65
2022/01/03 10:13:19;;;;;;;9.20;3.75;;;;;;;8.63;70.36;97864.78;5112542;28;20399;-65
2022/01/03 10:15:45;;;;;;;8.07;3.13;;;;;;;8.56;70.56;97881.56;5112589;28;20020;-65
2022/01/03 10:18:21;;;;;;;8.98;3.35;;;;;;;8.44;71.55;97894.81;5112097;28;20390;-65
2022/01/03 10:20:47;;;;;;;5.57;2.55;;;;;;;8.20;71.13;97887.53;5094148;28;20429;-65
2022/01/03 10:23:15;;;;;;;3.75;2.38;;;;;;;8.08;70.88;97900.78;5112412;28;20113;-65
2022/01/03 10:25:42;;;;;;;6.00;2.88;;;;;;;7.94;72.65;97873.41;5112462;28;20022;-66
2022/01/03 10:28:08;;;;;;;8.05;3.45;;;;;;;7.89;73.22;97882.47;5111821;28;20072;-65
2022/01/03 10:30:43;;;;;;;9.75;3.75;;;;;;;7.89;73.18;97890.69;5112426;28;20432;-65
2022/01/03 10:33:12;;;;;;;7.63;3.60;;;;;;;7.92;72.21;97902.91;5111481;28;20020;-65
2022/01/03 10:35:41;;;;;;;6.65;3.10;;;;;;;7.94;72.63;97923.38;5112118;28;20071;-64
2022/01/03 10:38:09;;;;;;;5.30;2.10;;;;;;;7.91;71.38;97888.47;5111454;28;20035;-64
2022/01/03 10:40:35;;;;;;;4.50;1.77;;;;;;;7.81;70.26;97878.47;5112226;28;20035;-65
2022/01/03 10:43:15;;;;;;;7.82;2.47;;;;;;;7.72;68.40;97883.78;5112221;28;20027;-65
2022/01/03 10:45:40;;;;;;;5.63;2.70;;;;;;;7.71;69.84;97884.06;5111391;28;20639;-65
2022/01/03 10:48:26;;;;;;;6.22;1.85;;;;;;;7.72;69.32;97885.69;5109952;28;20040;-65
2022/01/03 10:50:53;;;;;;;7.07;3.17;;;;;;;7.81;69.10;97885.84;5110259;28;20035;-63
2022/01/03 10:53:34;;;;;;;5.53;2.30;;;;;;;7.85;68.79;97879.50;5111754;27;20085;-64
2022/01/03 10:56:00;;;;;;;8.15;2.38;;;;;;;7.90;68.08;97868.53;5109194;28;20161;-65
2022/01/03 10:58:33;;;;;;;7.65;2.05;;;;;;;7.98;67.74;97872.50;5104143;27;20039;-64
2022/01/03 11:00:59;;;;;;;4.70;1.45;;;;;;;8.05;68.16;97872.97;5090609;28;20145;-64
2022/01/03 11:03:30;;;;;;;6.38;2.20;;;;;;;8.12;67.13;97878.09;5112646;27;20012;-63
2022/01/03 11:06:02;;;;;;;7.72;2.90;;;;;;;8.22;64.63;97870.81;5108092;28;20032;-63
2022/01/03 11:11:14;;;;;;;7.78;2.45;;;;;;;8.31;64.06;97869.91;5111187;28;20510;-64
2022/01/03 11:13:42;;;;;;;7.95;2.00;;;;;;;8.35;62.88;97870.09;5110843;28;20035;-64
2022/01/03 11:16:09;;;;;;;9.20;3.20;;;;;;;8.44;62.21;97862.03;5105025;28;20490;-64
2022/01/03 11:18:36;;;;;;;11.48;3.33;;;;;;;8.51;61.64;97876.19;5108845;28;20059;-64
2022/01/03 11:21:04;;;;;;;11.07;3.53;;;;;;;8.63;61.96;97853.84;5110739;27;20024;-64
2022/01/03 11:23:30;;;;;;;11.63;3.85;;;;;;;8.68;60.98;97848.28;5107252;28;20028;-65
2022/01/03 11:25:56;;;;;;;7.97;1.73;;;;;;;8.76;58.53;97842.16;5110844;27;20391;-64
2022/01/03 11:28:24;;;;;;;7.40;2.58;;;;;;;8.83;60.46;97839.00;5111896;27;20055;-64
2022/01/03 11:30:52;;;;;;;6.93;2.35;;;;;;;8.90;59.69;97836.72;5111239;27;20028;-65
2022/01/03 11:33:19;;;;;;;6.47;2.55;;;;;;;8.97;59.12;97840.97;5111885;27;20028;-64
2022/01/03 11:35:50;;;;;;;7.47;2.30;;;;;;;9.03;58.73;97831.56;5091924;28;20028;-66
2022/01/03 11:38:21;;;;;;;15.88;5.72;;;;;;;9.09;59.72;97825.69;5109054;28;20031;-64
2022/01/03 11:40:47;;;;;;;14.02;5.45;;;;;;;9.17;59.36;97826.91;5108272;28;20034;-67
2022/01/03 11:43:13;;;;;;;12.32;5.95;;;;;;;9.25;57.50;97830.91;5109487;28;20031;-65
2022/01/03 11:45:40;;;;;;;4.13;1.50;;;;;;;9.28;56.22;97835.75;5111188;28;20106;-66
2022/01/03 11:48:10;;;;;;;6.50;2.38;;;;;;;9.37;57.50;97836.66;5111435;28;20032;-65
2022/01/03 11:50:39;;;;;;;;;;;;;;;9.50;57.49;97820.53;5115577;28;20032;-66